Time;durP1;ratioP1;P1;durP2;ratioP2;P2;SDS_P1;SDS_P2;PMS_P1;PMS_P2;Temp;Humidity;BMP_temperature;BMP_pressure;BME280_temperature;BME280_humidity;BME280_pressure;Samples;Min_cycle;Max_cycle;Signal;HPM_P1;HPM_P2
2023/03/18 00:00:43;;;;;;;3.37;3.07;;;9.80;59.40;9.60;95984.00;;;;5070812;28;20208;-77
2023/03/18 00:03:13;;;;;;;4.70;3.63;;;9.70;59.30;9.60;95981.00;;;;5067157;28;20200;-77
2023/03/18 00:05:40;;;;;;;4.23;3.57;;;9.70;59.90;9.60;95970.00;;;;5068136;28;20200;-77
2023/03/18 00:08:08;;;;;;;3.87;3.13;;;9.70;59.40;9.50;95966.00;;;;5072170;28;20204;-77
2023/03/18 00:10:36;;;;;;;4.17;3.27;;;9.70;59.50;9.50;95975.00;;;;5070732;28;20224;-78
2023/03/18 00:13:04;;;;;;;3.53;3.23;;;9.60;59.60;9.50;95971.00;;;;5060204;28;20195;-78
2023/03/18 00:15:32;;;;;;;3.77;3.30;;;9.60;59.70;9.50;95970.00;;;;5076087;28;20196;-78
2023/03/18 00:17:59;;;;;;;4.60;3.40;;;9.60;59.70;9.40;95963.00;;;;5065775;28;20224;-78
2023/03/18 00:20:37;;;;;;;4.03;3.37;;;9.60;59.70;9.40;95987.00;;;;5079582;28;20298;-79
2023/03/18 00:23:07;;;;;;;3.97;3.27;;;9.60;59.80;9.40;95990.00;;;;5070659;28;20204;-78
2023/03/18 00:25:35;;;;;;;4.07;2.90;;;9.50;59.60;9.30;95991.00;;;;5083836;28;20204;-78
2023/03/18 00:28:04;;;;;;;3.90;3.50;;;9.50;59.70;9.30;95991.00;;;;5064337;28;20244;-78
2023/03/18 00:30:31;;;;;;;5.03;3.27;;;9.50;59.80;9.30;96006.00;;;;5089413;28;20223;-77
2023/03/18 00:33:00;;;;;;;3.70;2.90;;;9.40;59.90;9.30;95990.00;;;;5093313;28;20195;-78
2023/03/18 00:35:29;;;;;;;2.93;2.60;;;9.40;60.10;9.30;95993.00;;;;5059077;28;20754;-77
2023/03/18 00:37:57;;;;;;;3.60;2.37;;;9.40;60.30;9.30;96002.00;;;;5072982;28;20220;-78
2023/03/18 00:40:28;;;;;;;3.63;2.63;;;9.40;60.40;9.30;95994.00;;;;5073032;28;20293;-78
2023/03/18 00:43:06;;;;;;;3.43;2.97;;;9.40;60.60;9.30;95997.00;;;;5071866;28;20203;-78
2023/03/18 00:45:36;;;;;;;3.07;2.77;;;9.40;60.60;9.20;96005.00;;;;5071329;28;20215;-77
2023/03/18 00:48:05;;;;;;;3.93;2.70;;;9.40;60.60;9.20;95989.00;;;;5061325;28;20263;-78
2023/03/18 00:50:35;;;;;;;3.57;2.27;;;9.30;60.50;9.20;95986.00;;;;5070566;28;20692;-78
2023/03/18 00:53:03;;;;;;;3.10;2.77;;;9.30;60.40;9.10;95998.00;;;;5069828;28;20196;-78
2023/03/18 00:55:31;;;;;;;3.17;2.47;;;9.30;60.30;9.10;96003.00;;;;5069646;28;20206;-78
2023/03/18 00:57:59;;;;;;;2.47;2.23;;;9.30;60.30;9.00;95996.00;;;;5053155;28;20220;-78
2023/03/18 01:00:27;;;;;;;4.73;3.00;;;9.20;60.30;9.00;96003.00;;;;5070269;28;20219;-77
2023/03/18 01:02:55;;;;;;;3.27;2.80;;;9.20;60.40;9.00;96017.00;;;;5069648;28;20203;-78
2023/03/18 01:05:23;;;;;;;4.17;2.87;;;9.20;60.30;8.90;96011.00;;;;5071943;28;20203;-78
2023/03/18 01:07:52;;;;;;;2.70;2.50;;;9.10;60.40;8.90;96007.00;;;;5071684;28;20220;-77
2023/03/18 01:10:19;;;;;;;5.23;3.10;;;9.10;60.50;8.90;95998.00;;;;5059828;28;20207;-78
2023/03/18 01:12:47;;;;;;;2.57;2.30;;;9.00;60.60;8.80;96002.00;;;;5052426;28;20288;-78
2023/03/18 01:15:18;;;;;;;3.17;2.87;;;9.00;60.60;8.80;96001.00;;;;5065288;28;20204;-78
2023/03/18 01:17:45;;;;;;;4.33;2.80;;;9.00;60.80;8.80;96005.00;;;;5067600;28;20342;-78
2023/03/18 01:20:18;;;;;;;2.67;2.30;;;8.90;60.90;8.80;96004.00;;;;5068475;28;20247;-77
2023/03/18 01:22:46;;;;;;;3.03;2.73;;;8.90;61.00;8.70;95999.00;;;;5079556;28;20254;-78
2023/03/18 01:25:16;;;;;;;2.70;2.50;;;8.90;61.00;8.70;96000.00;;;;5076048;28;20249;-79
2023/03/18 01:27:44;;;;;;;3.00;2.70;;;8.90;61.00;8.70;95993.00;;;;5077320;28;20839;-78
2023/03/18 01:30:13;;;;;;;3.27;2.50;;;8.80;61.00;8.70;96004.00;;;;5067094;28;20231;-78
2023/03/18 01:32:42;;;;;;;3.13;2.40;;;8.80;61.10;8.60;95999.00;;;;5074429;28;20230;-78
2023/03/18 01:35:11;;;;;;;3.37;3.07;;;8.80;61.10;8.60;95994.00;;;;5086630;28;20191;-78
2023/03/18 01:37:39;;;;;;;2.97;2.77;;;8.80;61.10;8.60;95999.00;;;;5075726;28;20219;-78
2023/03/18 01:40:10;;;;;;;2.90;2.50;;;8.80;61.30;8.50;96002.00;;;;5072226;28;20239;-78
2023/03/18 01:42:40;;;;;;;3.07;2.87;;;8.70;61.30;8.50;96001.00;;;;5072202;28;20192;-78
2023/03/18 01:45:21;;;;;;;3.67;2.77;;;8.70;61.30;8.50;96002.00;;;;5081500;28;20661;-78
2023/03/18 01:47:50;;;;;;;3.57;2.80;;;8.70;61.60;8.40;96001.00;;;;5080125;28;20312;-77
2023/03/18 01:50:22;;;;;;;3.63;3.00;;;8.60;61.40;8.40;95999.00;;;;5061504;28;20192;-78
2023/03/18 01:52:56;;;;;;;3.33;2.83;;;8.60;61.40;8.40;96005.00;;;;5070157;28;20204;-78
2023/03/18 01:55:30;;;;;;;3.83;2.67;;;8.60;61.50;8.40;96009.00;;;;5069583;28;20691;-78
2023/03/18 01:58:03;;;;;;;3.00;2.57;;;8.50;61.80;8.40;96004.00;;;;5070219;28;20633;-78
2023/03/18 02:00:31;;;;;;;3.53;2.80;;;8.50;61.90;8.30;96005.00;;;;5068917;28;20280;-78
2023/03/18 02:02:59;;;;;;;3.63;2.50;;;8.50;62.00;8.30;96003.00;;;;5068619;28;20196;-78
2023/03/18 02:05:29;;;;;;;4.37;3.00;;;8.50;62.10;8.30;96007.00;;;;5071599;28;20216;-78
2023/03/18 02:07:57;;;;;;;3.03;2.80;;;8.50;62.30;8.30;96015.00;;;;5070590;28;20212;-78
2023/03/18 02:10:28;;;;;;;4.70;2.47;;;8.50;62.30;8.30;96019.00;;;;5082459;28;20257;-78
2023/03/18 02:13:02;;;;;;;2.97;2.67;;;8.50;62.30;8.30;96019.00;;;;5095831;28;20195;-78
2023/03/18 02:15:32;;;;;;;2.60;2.40;;;8.50;62.20;8.30;96015.00;;;;5084165;28;20210;-78
2023/03/18 02:18:05;;;;;;;2.70;2.50;;;8.50;62.00;8.30;96026.00;;;;5055832;28;20231;-78
2023/03/18 02:20:48;;;;;;;4.23;3.10;;;8.40;61.90;8.20;96021.00;;;;5082540;28;20220;-78
2023/03/18 02:23:29;;;;;;;2.93;2.63;;;8.50;61.90;8.20;96020.00;;;;5055868;28;20239;-78
2023/03/18 02:26:05;;;;;;;3.07;2.83;;;8.40;61.80;8.20;96028.00;;;;5070820;28;20200;-77
2023/03/18 02:28:37;;;;;;;2.80;2.60;;;8.40;61.80;8.10;96026.00;;;;5075143;28;20554;-78
2023/03/18 02:31:11;;;;;;;3.13;2.77;;;8.40;61.70;8.10;96025.00;;;;5074454;28;20229;-78
2023/03/18 02:33:42;;;;;;;2.53;2.33;;;8.40;61.80;8.10;96021.00;;;;5070017;28;20193;-78
2023/03/18 02:36:16;;;;;;;4.27;2.77;;;8.30;61.70;8.10;96027.00;;;;5065344;28;20211;-78
2023/03/18 02:38:46;;;;;;;3.57;2.93;;;8.30;61.70;8.10;96037.00;;;;5059489;28;20200;-78
2023/03/18 02:41:17;;;;;;;2.70;2.43;;;8.30;61.80;8.00;96027.00;;;;5070931;28;20292;-78
2023/03/18 02:43:48;;;;;;;3.07;2.53;;;8.20;61.90;8.00;96034.00;;;;5074333;28;20200;-78
2023/03/18 02:46:31;;;;;;;2.67;2.17;;;8.20;61.90;8.00;96033.00;;;;5072427;28;20216;-78
2023/03/18 02:49:00;;;;;;;2.37;2.17;;;8.20;62.20;8.00;96033.00;;;;5072625;28;20292;-78
2023/03/18 02:51:29;;;;;;;4.30;2.47;;;8.20;61.90;8.00;96036.00;;;;5073604;28;20223;-78
2023/03/18 02:54:03;;;;;;;2.50;2.30;;;8.20;62.00;7.90;96032.00;;;;5073764;28;20227;-78
2023/03/18 02:56:31;;;;;;;2.60;2.33;;;8.10;62.10;7.90;96036.00;;;;5073941;28;20235;-78
2023/03/18 02:59:01;;;;;;;2.60;2.40;;;8.20;62.30;7.90;96041.00;;;;5073821;28;20211;-78
2023/03/18 03:01:28;;;;;;;2.90;2.60;;;8.20;62.30;7.90;96035.00;;;;5074986;28;20306;-78
2023/03/18 03:03:56;;;;;;;3.50;2.63;;;8.10;62.10;7.80;96041.00;;;;5074119;28;20227;-78
2023/03/18 03:06:24;;;;;;;3.47;2.80;;;8.10;62.20;7.80;96045.00;;;;5074993;28;20275;-78
2023/03/18 03:08:52;;;;;;;2.97;2.67;;;8.00;62.10;7.80;96044.00;;;;5074736;28;20621;-78
2023/03/18 03:11:20;;;;;;;3.27;2.53;;;8.00;62.20;7.80;96057.00;;;;5063523;28;20200;-78
2023/03/18 03:13:48;;;;;;;2.97;2.40;;;8.00;62.30;7.80;96054.00;;;;5055423;28;20636;-78
2023/03/18 03:16:18;;;;;;;2.83;2.50;;;8.00;62.50;7.80;96049.00;;;;5068882;28;20303;-76
2023/03/18 03:18:46;;;;;;;2.60;2.40;;;8.00;62.50;7.70;96050.00;;;;5073471;28;20294;-75
2023/03/18 03:21:15;;;;;;;3.03;2.50;;;7.90;62.50;7.70;96047.00;;;;5074792;28;20695;-78
2023/03/18 03:23:45;;;;;;;2.70;2.50;;;7.90;62.50;7.70;96058.00;;;;5072744;28;20196;-78
2023/03/18 03:26:13;;;;;;;2.57;2.37;;;7.90;62.60;7.70;96062.00;;;;5074440;28;20218;-78
2023/03/18 03:28:41;;;;;;;3.07;2.60;;;7.90;62.60;7.70;96062.00;;;;5073561;28;20204;-78
2023/03/18 03:31:09;;;;;;;2.77;2.57;;;7.90;62.70;7.70;96063.00;;;;5065976;28;20255;-78
2023/03/18 03:33:42;;;;;;;3.70;2.63;;;7.90;62.80;7.70;96060.00;;;;5069540;28;20207;-78
2023/03/18 03:36:13;;;;;;;3.47;2.80;;;7.80;62.90;7.70;96065.00;;;;5078298;28;20219;-78
2023/03/18 03:38:42;;;;;;;2.77;2.57;;;7.80;62.90;7.70;96070.00;;;;5080440;28;20207;-78
2023/03/18 03:41:11;;;;;;;3.23;2.63;;;7.80;63.00;7.70;96069.00;;;;5077519;28;20275;-78
2023/03/18 03:43:40;;;;;;;3.23;2.43;;;7.80;63.10;7.60;96059.00;;;;5078533;28;20200;-78
2023/03/18 03:46:09;;;;;;;2.70;2.50;;;7.80;63.20;7.70;96066.00;;;;5077436;28;20234;-78
2023/03/18 03:48:40;;;;;;;3.00;2.80;;;7.80;63.30;7.70;96067.00;;;;5074345;28;20253;-78
2023/03/18 03:51:08;;;;;;;2.93;2.60;;;7.80;63.40;7.70;96068.00;;;;5072397;28;20676;-78
2023/03/18 03:53:37;;;;;;;2.70;2.50;;;7.80;63.50;7.70;96064.00;;;;5072364;28;20200;-78
2023/03/18 03:56:07;;;;;;;2.63;2.43;;;7.80;63.50;7.70;96073.00;;;;5083600;28;20222;-78
2023/03/18 03:58:35;;;;;;;2.93;2.53;;;7.80;63.60;7.70;96073.00;;;;5093404;28;20238;-78
2023/03/18 04:01:03;;;;;;;4.27;2.70;;;7.90;63.80;7.70;96073.00;;;;5093074;28;20283;-78
2023/03/18 04:03:32;;;;;;;3.40;2.70;;;7.80;63.80;7.80;96075.00;;;;5094129;28;20195;-77
2023/03/18 04:06:01;;;;;;;3.00;2.70;;;7.90;63.80;7.70;96079.00;;;;5093639;28;20249;-77
2023/03/18 04:08:29;;;;;;;2.93;2.60;;;7.90;63.80;7.70;96079.00;;;;5093010;28;20651;-77
2023/03/18 04:10:56;;;;;;;4.80;2.40;;;7.90;63.70;7.80;96080.00;;;;5092603;28;20634;-78
2023/03/18 04:13:24;;;;;;;3.93;2.90;;;7.90;63.80;7.80;96075.00;;;;5094290;28;20199;-78
2023/03/18 04:15:52;;;;;;;2.93;2.37;;;7.90;63.80;7.80;96080.00;;;;5092195;28;20203;-78
2023/03/18 04:18:19;;;;;;;3.20;2.70;;;7.90;63.80;7.80;96076.00;;;;5064076;28;20211;-78
2023/03/18 04:20:46;;;;;;;2.97;2.67;;;7.90;63.80;7.80;96080.00;;;;5077125;28;20771;-77
2023/03/18 04:23:15;;;;;;;2.80;2.47;;;7.90;63.80;7.80;96081.00;;;;5067073;28;20211;-78
2023/03/18 04:25:43;;;;;;;2.57;2.37;;;7.90;63.90;7.80;96084.00;;;;5064938;28;20278;-78
2023/03/18 04:28:11;;;;;;;3.03;2.77;;;7.90;63.90;7.80;96081.00;;;;5093933;28;20567;-79
2023/03/18 04:30:38;;;;;;;3.83;2.93;;;7.90;63.90;7.80;96084.00;;;;5084828;28;20196;-78
2023/03/18 04:33:06;;;;;;;3.83;2.57;;;7.90;63.90;7.80;96084.00;;;;5071428;28;20199;-78
2023/03/18 04:35:34;;;;;;;2.97;2.67;;;7.90;63.90;7.80;96090.00;;;;5066714;28;20187;-78
2023/03/18 04:38:01;;;;;;;2.93;2.63;;;7.90;64.00;7.80;96084.00;;;;5072000;28;20242;-78
2023/03/18 04:40:31;;;;;;;4.83;2.63;;;7.90;64.00;7.80;96090.00;;;;5071034;28;20239;-78
2023/03/18 04:42:58;;;;;;;2.77;2.50;;;7.90;64.00;7.80;96090.00;;;;5060544;28;20255;-78
2023/03/18 04:45:25;;;;;;;2.90;2.47;;;7.90;64.00;7.80;96085.00;;;;5059522;28;20758;-79
2023/03/18 04:47:53;;;;;;;2.63;2.40;;;7.90;64.10;7.80;96087.00;;;;5061366;28;20320;-78
2023/03/18 04:50:22;;;;;;;3.43;2.37;;;7.90;64.20;7.80;96089.00;;;;5061007;28;20280;-77
2023/03/18 04:52:50;;;;;;;3.67;2.50;;;7.90;64.10;7.80;96098.00;;;;5071884;28;20670;-77
2023/03/18 04:55:20;;;;;;;2.47;2.20;;;7.90;64.20;7.80;96099.00;;;;5061165;28;20200;-77
2023/03/18 04:57:49;;;;;;;4.07;2.80;;;7.90;64.20;7.90;96093.00;;;;5055533;28;20212;-77
2023/03/18 05:00:21;;;;;;;2.80;2.53;;;8.00;64.40;7.90;96104.00;;;;5044570;28;20279;-77
2023/03/18 05:02:49;;;;;;;4.50;2.90;;;8.00;64.50;7.90;96096.00;;;;5072156;28;20221;-78
2023/03/18 05:05:17;;;;;;;2.83;2.57;;;8.00;64.50;7.90;96099.00;;;;5071899;28;20200;-78
2023/03/18 05:07:44;;;;;;;3.80;2.93;;;8.00;64.60;7.90;96092.00;;;;5069437;28;20648;-78
2023/03/18 05:10:12;;;;;;;3.03;2.47;;;8.00;64.60;7.90;96093.00;;;;5064739;28;20636;-77
2023/03/18 05:12:40;;;;;;;4.13;2.30;;;8.00;64.70;7.90;96091.00;;;;5071897;28;20257;-77
2023/03/18 05:15:13;;;;;;;3.43;2.67;;;8.00;64.60;7.90;96089.00;;;;5073088;28;20274;-78
2023/03/18 05:17:41;;;;;;;3.67;2.80;;;8.00;64.60;7.90;96100.00;;;;5069247;28;20271;-79
2023/03/18 05:20:12;;;;;;;2.33;2.13;;;8.00;64.50;7.90;96090.00;;;;5072050;28;20225;-78
2023/03/18 05:22:40;;;;;;;3.90;2.63;;;8.00;64.50;7.90;96093.00;;;;5072479;28;20224;-78
2023/03/18 05:25:11;;;;;;;3.13;2.80;;;8.00;64.40;7.90;96094.00;;;;5059326;28;20188;-78
2023/03/18 05:27:39;;;;;;;2.67;2.47;;;8.00;64.40;7.90;96108.00;;;;5088935;28;20223;-77
2023/03/18 05:30:11;;;;;;;3.17;2.87;;;8.00;64.40;7.90;96100.00;;;;5071475;28;20616;-77
2023/03/18 05:32:38;;;;;;;2.50;2.30;;;8.00;64.50;7.90;96097.00;;;;5088920;28;20349;-77
2023/03/18 05:35:07;;;;;;;2.87;2.60;;;8.00;64.40;7.90;96098.00;;;;5052114;28;20870;-77
2023/03/18 05:37:34;;;;;;;3.33;2.57;;;8.00;64.60;7.90;96099.00;;;;5067469;28;20728;-78
2023/03/18 05:40:03;;;;;;;2.90;2.57;;;8.00;64.50;7.90;96102.00;;;;5071246;28;20686;-77
2023/03/18 05:42:30;;;;;;;3.70;2.87;;;8.00;64.60;7.90;96104.00;;;;5087457;28;20223;-76
2023/03/18 05:44:58;;;;;;;3.50;2.97;;;8.00;64.60;7.90;96106.00;;;;5084378;28;20200;-78
2023/03/18 05:47:26;;;;;;;3.37;2.50;;;8.00;64.60;7.90;96107.00;;;;5070641;28;20215;-77
2023/03/18 05:49:54;;;;;;;2.97;2.67;;;8.00;65.40;7.90;96106.00;;;;5061724;28;20291;-79
2023/03/18 05:52:21;;;;;;;3.33;2.60;;;8.00;64.80;8.00;96101.00;;;;5075889;28;20191;-77
2023/03/18 05:54:49;;;;;;;3.90;2.87;;;8.10;64.90;8.10;96100.00;;;;5081746;28;20196;-77
2023/03/18 05:57:17;;;;;;;3.63;2.77;;;8.10;65.00;8.10;96102.00;;;;5084619;28;20211;-76
2023/03/18 05:59:45;;;;;;;3.67;3.13;;;8.10;65.00;8.20;96098.00;;;;5075936;28;20268;-77
2023/03/18 06:02:12;;;;;;;4.37;3.00;;;8.10;65.00;8.20;96106.00;;;;5078341;28;20226;-77
2023/03/18 06:04:41;;;;;;;4.57;3.53;;;8.20;65.20;8.30;96111.00;;;;5076820;28;20196;-78
2023/03/18 06:07:09;;;;;;;3.07;2.87;;;8.20;65.30;8.40;96107.00;;;;5073977;28;20216;-78
2023/03/18 06:09:36;;;;;;;2.93;2.73;;;8.30;65.40;8.40;96120.00;;;;5059500;28;20197;-78
2023/03/18 06:12:04;;;;;;;4.33;3.30;;;8.30;65.50;8.50;96120.00;;;;5071980;28;20235;-77
2023/03/18 06:14:32;;;;;;;3.60;3.30;;;8.30;65.50;8.60;96122.00;;;;5081849;28;20231;-78
2023/03/18 06:16:59;;;;;;;4.17;3.20;;;8.40;65.60;8.60;96127.00;;;;5074018;28;20308;-77
2023/03/18 06:19:29;;;;;;;4.37;3.00;;;8.40;65.60;8.70;96132.00;;;;5074819;28;20287;-77
2023/03/18 06:21:58;;;;;;;4.17;3.60;;;8.50;65.80;8.80;96125.00;;;;5075526;28;20220;-78
2023/03/18 06:24:27;;;;;;;4.53;3.77;;;8.60;66.10;8.90;96128.00;;;;5078614;28;20299;-78
2023/03/18 06:26:54;;;;;;;3.63;3.23;;;8.70;66.30;9.00;96136.00;;;;5080017;28;20273;-78
2023/03/18 06:29:22;;;;;;;4.97;3.90;;;8.70;66.40;9.10;96130.00;;;;5076545;28;20220;-79
2023/03/18 06:31:50;;;;;;;4.63;4.07;;;8.80;66.40;9.20;96134.00;;;;5068052;28;20196;-79
2023/03/18 06:34:17;;;;;;;4.50;4.03;;;8.90;66.70;9.20;96135.00;;;;5065856;28;20746;-79
2023/03/18 06:36:45;;;;;;;4.27;3.87;;;9.00;66.80;9.30;96139.00;;;;5075338;28;20993;-79
2023/03/18 06:39:14;;;;;;;4.57;3.87;;;9.10;66.80;9.40;96140.00;;;;5076415;28;20197;-78
2023/03/18 06:41:42;;;;;;;5.40;3.80;;;9.10;66.80;9.50;96139.00;;;;5078080;28;20311;-80
2023/03/18 06:44:10;;;;;;;8.03;5.00;;;9.20;66.80;9.60;96139.00;;;;5077633;28;20287;-78
2023/03/18 06:46:38;;;;;;;8.00;5.73;;;9.30;66.70;9.70;96136.00;;;;5062930;28;20708;-78
2023/03/18 06:49:06;;;;;;;7.60;6.50;;;9.40;66.70;9.80;96137.00;;;;5087033;28;20200;-80
2023/03/18 06:51:33;;;;;;;7.43;5.70;;;9.40;66.80;9.80;96134.00;;;;5087499;28;20219;-79
2023/03/18 06:54:02;;;;;;;6.27;5.67;;;9.50;66.90;9.90;96136.00;;;;5057870;28;20203;-79
2023/03/18 06:56:32;;;;;;;6.87;5.60;;;9.60;66.90;10.00;96139.00;;;;5074579;28;20242;-78
2023/03/18 06:59:00;;;;;;;6.87;4.90;;;9.70;67.00;10.10;96142.00;;;;5077154;28;20187;-80
2023/03/18 07:01:28;;;;;;;5.10;4.33;;;9.70;67.00;10.10;96145.00;;;;5059498;28;20219;-79
2023/03/18 07:03:57;;;;;;;4.50;4.03;;;9.80;67.00;10.20;96148.00;;;;5077038;28;20295;-80
2023/03/18 07:06:25;;;;;;;5.20;4.20;;;9.90;67.10;10.30;96157.00;;;;5078143;28;20255;-80
2023/03/18 07:08:53;;;;;;;5.67;4.97;;;10.00;67.00;10.40;96146.00;;;;5077153;28;20254;-80
2023/03/18 07:11:21;;;;;;;5.50;5.00;;;10.10;67.10;10.50;96153.00;;;;5062143;28;20263;-80
2023/03/18 07:13:50;;;;;;;5.93;5.43;;;10.10;67.00;10.60;96159.00;;;;5078620;28;20203;-81
2023/03/18 07:16:18;;;;;;;4.97;4.57;;;10.30;67.00;10.70;96157.00;;;;5080635;28;20724;-78
2023/03/18 07:18:45;;;;;;;5.30;4.80;;;10.40;67.00;10.80;96151.00;;;;5071160;28;20232;-79
2023/03/18 07:21:13;;;;;;;5.43;4.93;;;10.40;66.90;10.90;96156.00;;;;5055666;28;20291;-78
2023/03/18 07:23:41;;;;;;;5.80;5.23;;;10.50;67.00;11.00;96164.00;;;;5054574;28;20472;-78
2023/03/18 07:26:08;;;;;;;4.57;4.13;;;10.60;66.90;11.20;96159.00;;;;5055483;28;20303;-79
2023/03/18 07:28:35;;;;;;;4.73;4.30;;;10.70;66.90;11.30;96156.00;;;;5086650;28;20196;-79
2023/03/18 07:31:05;;;;;;;4.77;4.37;;;10.90;66.90;11.40;96158.00;;;;5075918;28;20229;-80
2023/03/18 07:33:33;;;;;;;5.10;4.23;;;11.00;66.80;11.50;96167.00;;;;5080601;28;20231;-80
2023/03/18 07:36:01;;;;;;;8.13;4.70;;;11.10;66.80;11.60;96168.00;;;;5077771;28;20223;-79
2023/03/18 07:38:28;;;;;;;5.53;4.93;;;11.20;66.60;11.70;96170.00;;;;5096472;28;20203;-80
2023/03/18 07:40:56;;;;;;;5.57;4.77;;;11.30;66.70;11.80;96177.00;;;;5097768;28;20584;-81
2023/03/18 07:43:24;;;;;;;5.37;4.70;;;11.40;66.70;11.90;96163.00;;;;5079304;28;20631;-80
2023/03/18 07:45:51;;;;;;;5.07;4.57;;;11.50;66.50;12.00;96172.00;;;;5075306;28;20203;-80
2023/03/18 07:48:20;;;;;;;6.50;5.20;;;11.60;66.50;12.20;96170.00;;;;5083225;28;20691;-80
2023/03/18 07:50:47;;;;;;;7.97;5.97;;;11.70;66.50;12.30;96177.00;;;;5075779;28;20283;-80
2023/03/18 07:53:15;;;;;;;7.47;5.13;;;11.80;66.20;12.40;96179.00;;;;5076061;28;20566;-79
2023/03/18 07:55:43;;;;;;;5.03;4.10;;;11.90;66.00;12.60;96178.00;;;;5057947;28;20695;-79
2023/03/18 07:58:11;;;;;;;4.37;3.97;;;12.00;65.80;12.70;96177.00;;;;5088502;28;20209;-79
2023/03/18 08:00:38;;;;;;;4.63;4.17;;;12.10;65.60;12.80;96178.00;;;;5095752;28;20192;-78
2023/03/18 08:03:06;;;;;;;4.30;3.90;;;12.30;65.80;12.90;96180.00;;;;5095571;28;20254;-78
2023/03/18 08:05:35;;;;;;;4.47;3.87;;;12.40;65.80;13.00;96191.00;;;;5082190;28;20199;-80
2023/03/18 08:08:03;;;;;;;7.07;4.53;;;12.50;65.90;13.20;96188.00;;;;5074505;28;20216;-80
2023/03/18 08:10:30;;;;;;;4.10;3.70;;;12.60;65.70;13.40;96189.00;;;;5075312;28;20567;-79
2023/03/18 08:12:57;;;;;;;5.20;3.40;;;12.80;65.50;13.50;96189.00;;;;5075361;28;20660;-79
2023/03/18 08:15:25;;;;;;;4.67;3.60;;;12.90;65.30;13.60;96196.00;;;;5074429;28;20927;-80
2023/03/18 08:17:53;;;;;;;4.47;3.73;;;13.00;65.00;13.70;96187.00;;;;5076067;28;20224;-80
2023/03/18 08:20:22;;;;;;;4.10;3.70;;;13.20;64.90;13.90;96194.00;;;;5073754;28;20847;-78
2023/03/18 08:22:51;;;;;;;4.17;3.77;;;13.30;64.50;14.00;96195.00;;;;5075096;28;20565;-80
2023/03/18 08:25:20;;;;;;;4.17;3.37;;;13.50;64.20;14.10;96200.00;;;;5063065;28;20271;-79
2023/03/18 08:27:48;;;;;;;4.40;3.93;;;13.60;64.10;14.30;96193.00;;;;5064760;28;20209;-79
2023/03/18 08:30:17;;;;;;;3.80;3.50;;;13.70;63.90;14.50;96196.00;;;;5066658;28;20200;-78
2023/03/18 08:32:45;;;;;;;6.70;3.90;;;13.80;63.60;14.60;96199.00;;;;5064958;28;20215;-78
2023/03/18 08:35:13;;;;;;;4.27;3.20;;;13.90;63.70;14.70;96210.00;;;;5071181;28;20190;-81
2023/03/18 08:37:41;;;;;;;3.60;3.00;;;14.10;62.70;14.90;96208.00;;;;5070465;28;20261;-80
2023/03/18 08:40:12;;;;;;;4.47;3.00;;;14.20;62.40;15.00;96204.00;;;;5069785;28;20189;-79
2023/03/18 08:42:40;;;;;;;3.70;3.40;;;14.30;62.50;15.10;96209.00;;;;5062562;28;20224;-80
2023/03/18 08:45:11;;;;;;;3.57;3.27;;;14.40;62.40;15.20;96210.00;;;;5063031;28;20192;-81
2023/03/18 08:47:38;;;;;;;3.57;3.27;;;14.50;62.60;15.40;96206.00;;;;5064590;28;20239;-80
2023/03/18 08:50:07;;;;;;;3.57;3.20;;;14.60;62.40;15.50;96206.00;;;;5067508;28;20192;-80
2023/03/18 08:52:36;;;;;;;3.77;3.47;;;14.80;62.20;15.60;96211.00;;;;5069041;28;20284;-80
2023/03/18 08:55:05;;;;;;;3.30;3.10;;;14.90;62.20;15.70;96203.00;;;;5068135;28;20192;-80
2023/03/18 08:57:34;;;;;;;3.27;2.83;;;15.00;61.70;15.80;96208.00;;;;5066616;28;20633;-81
2023/03/18 09:00:02;;;;;;;4.27;2.87;;;15.10;61.50;16.00;96205.00;;;;5063232;28;20741;-82
2023/03/18 09:02:30;;;;;;;3.67;2.90;;;15.30;62.00;16.00;96198.00;;;;5065739;28;20718;-79
2023/03/18 09:04:58;;;;;;;3.43;2.90;;;15.40;61.10;16.20;96200.00;;;;5070120;28;20708;-81
2023/03/18 09:07:25;;;;;;;3.37;2.50;;;15.50;60.70;16.30;96208.00;;;;5067577;28;20911;-80
2023/03/18 09:09:54;;;;;;;3.30;2.83;;;15.60;59.80;16.40;96211.00;;;;5085842;28;20257;-80
2023/03/18 09:12:22;;;;;;;3.13;2.47;;;15.70;59.40;16.50;96200.00;;;;5064712;28;20193;-78
2023/03/18 09:14:51;;;;;;;3.03;2.60;;;15.80;59.00;16.60;96206.00;;;;5062824;28;20283;-78
2023/03/18 09:17:18;;;;;;;5.07;2.83;;;15.90;58.80;16.70;96216.00;;;;5064236;28;20593;-79
2023/03/18 09:19:46;;;;;;;3.20;2.57;;;16.00;58.90;16.80;96214.00;;;;5068832;28;20283;-79
2023/03/18 09:22:13;;;;;;;2.60;2.40;;;16.10;59.00;16.90;96217.00;;;;5068100;28;20307;-79
2023/03/18 09:24:41;;;;;;;3.30;2.47;;;16.20;58.80;17.10;96213.00;;;;5053534;28;20652;-78
2023/03/18 09:27:08;;;;;;;2.93;2.70;;;16.30;58.40;17.20;96217.00;;;;5068764;28;20223;-78
2023/03/18 09:29:36;;;;;;;2.77;2.27;;;16.40;58.00;17.30;96216.00;;;;5064904;28;20227;-78
2023/03/18 09:32:05;;;;;;;2.80;2.60;;;16.50;57.80;17.50;96212.00;;;;5068410;28;20261;-79
2023/03/18 09:34:33;;;;;;;2.43;2.23;;;16.60;57.90;17.60;96214.00;;;;5082723;28;20194;-80
2023/03/18 09:37:00;;;;;;;2.10;1.90;;;16.80;58.00;17.80;96211.00;;;;5064890;28;20251;-78
2023/03/18 09:39:28;;;;;;;2.50;2.40;;;16.90;57.80;17.90;96215.00;;;;5072276;28;20192;-78
2023/03/18 09:42:25;;;;;;;3.90;2.57;;;17.00;57.70;18.10;96217.00;;;;5074272;28;20228;-77
2023/03/18 09:45:01;;;;;;;2.60;2.40;;;17.20;57.30;18.30;96219.00;;;;5069639;28;20287;-79
2023/03/18 09:48:10;;;;;;;5.00;2.70;;;17.30;57.70;18.40;96215.00;;;;5061655;28;20220;-79
2023/03/18 09:50:42;;;;;;;3.23;2.63;;;17.50;56.70;18.60;96217.00;;;;5063415;28;20662;-77
2023/03/18 09:53:18;;;;;;;6.93;3.00;;;17.60;57.10;18.70;96207.00;;;;5060073;28;20224;-77
2023/03/18 09:55:51;;;;;;;3.00;2.80;;;17.80;57.00;18.90;96214.00;;;;5058570;28;20614;-79
2023/03/18 09:58:26;;;;;;;3.63;3.07;;;17.90;56.70;19.00;96217.00;;;;5066780;28;20295;-77
2023/03/18 10:00:58;;;;;;;3.00;2.70;;;18.10;56.40;19.10;96231.00;;;;5061916;28;20655;-79
2023/03/18 10:03:36;;;;;;;3.60;2.63;;;18.20;56.80;19.30;96220.00;;;;5064500;28;20220;-78
2023/03/18 10:06:12;;;;;;;3.77;3.03;;;18.40;56.20;19.40;96221.00;;;;5067112;28;20235;-79
2023/03/18 10:08:52;;;;;;;3.10;2.53;;;18.50;56.20;19.40;96214.00;;;;5066385;28;20195;-79
2023/03/18 10:11:37;;;;;;;3.20;2.50;;;18.60;56.10;19.60;96222.00;;;;5069609;28;20190;-80
2023/03/18 10:14:29;;;;;;;3.43;3.17;;;18.70;55.40;19.70;96235.00;;;;5065198;28;20234;-80
2023/03/18 10:17:09;;;;;;;3.50;3.20;;;18.80;55.70;19.80;96231.00;;;;5055474;28;20220;-81
2023/03/18 10:19:48;;;;;;;3.20;2.80;;;19.00;55.50;20.00;96231.00;;;;5071908;28;20196;-80
2023/03/18 10:22:50;;;;;;;3.03;2.73;;;19.10;55.80;20.20;96234.00;;;;5069160;28;20204;-80
2023/03/18 10:25:26;;;;;;;3.90;2.90;;;19.30;55.50;20.40;96234.00;;;;5067527;28;20210;-80
2023/03/18 10:28:28;;;;;;;2.37;2.17;;;19.50;56.10;20.60;96238.00;;;;5088468;28;20216;-79
2023/03/18 10:31:11;;;;;;;3.43;2.57;;;19.70;56.20;20.90;96239.00;;;;5060265;28;20196;-79
2023/03/18 10:33:50;;;;;;;2.60;2.40;;;20.00;55.80;21.20;96239.00;;;;5046549;28;20208;-80
2023/03/18 10:36:27;;;;;;;2.83;2.63;;;20.30;55.00;21.30;96237.00;;;;5057487;28;20246;-79
2023/03/18 10:38:58;;;;;;;2.90;2.40;;;20.50;54.50;21.50;96237.00;;;;5065156;28;20202;-80
2023/03/18 10:41:33;;;;;;;2.50;2.20;;;20.70;53.40;21.50;96237.00;;;;5088852;28;20200;-81
2023/03/18 10:44:07;;;;;;;4.43;2.40;;;20.80;52.50;21.60;96240.00;;;;5090071;28;20207;-80
2023/03/18 10:46:36;;;;;;;3.10;2.40;;;20.90;52.10;21.60;96230.00;;;;5072586;28;20208;-79
2023/03/18 10:49:15;;;;;;;3.17;2.40;;;21.00;51.90;21.70;96220.00;;;;5069411;28;20254;-80
2023/03/18 10:51:53;;;;;;;2.27;2.07;;;21.10;51.50;21.80;96217.00;;;;5072827;28;20714;-81
2023/03/18 10:54:27;;;;;;;1.93;1.83;;;21.20;51.40;21.90;96215.00;;;;5075734;28;20203;-80
2023/03/18 10:56:55;;;;;;;3.43;2.00;;;21.40;52.10;22.00;96221.00;;;;5083113;28;20224;-81
2023/03/18 10:59:27;;;;;;;2.10;1.90;;;21.50;52.20;22.20;96229.00;;;;5077735;28;20199;-80
2023/03/18 11:02:03;;;;;;;3.00;2.07;;;21.60;51.80;22.20;96221.00;;;;5077710;28;20541;-81
2023/03/18 11:04:41;;;;;;;2.23;2.03;;;21.70;50.60;22.30;96219.00;;;;5066203;28;20208;-83
2023/03/18 11:07:19;;;;;;;1.57;1.47;;;21.70;49.90;22.30;96216.00;;;;5083189;28;20234;-81
2023/03/18 11:09:47;;;;;;;2.67;1.90;;;21.80;49.80;22.20;96213.00;;;;5083354;28;20184;-81
2023/03/18 11:12:18;;;;;;;2.37;1.80;;;21.80;49.20;22.20;96205.00;;;;5081905;28;20192;-82
2023/03/18 11:14:57;;;;;;;1.70;1.40;;;21.80;48.50;22.10;96195.00;;;;5077061;28;20212;-81
2023/03/18 11:17:34;;;;;;;1.40;1.30;;;21.80;48.50;22.00;96196.00;;;;5076509;28;20253;-80